createdAt,value
2023-02-17T00:04:16.007Z,100.00
2023-02-17T00:09:17.325Z,100.00
2023-02-17T00:14:18.685Z,100.00
2023-02-17T00:19:26.051Z,100.00
2023-02-17T00:24:28.754Z,100.00
2023-02-17T00:29:30.107Z,100.00
2023-02-17T00:34:31.607Z,100.00
2023-02-17T00:39:32.928Z,100.00
2023-02-17T00:44:34.319Z,100.00
2023-02-17T00:49:35.755Z,100.00
2023-02-17T00:54:37.093Z,100.00
2023-02-17T00:59:38.442Z,100.00
2023-02-17T01:04:39.857Z,100.00
2023-02-17T01:09:41.164Z,100.00
2023-02-17T01:14:42.502Z,100.00
2023-02-17T01:19:43.801Z,100.00
2023-02-17T01:24:45.119Z,100.00
2023-02-17T01:29:46.473Z,100.00
2023-02-17T01:34:48.996Z,100.00
2023-02-17T01:39:50.373Z,100.00
2023-02-17T01:45:10.643Z,100.00
2023-02-17T01:50:12.007Z,100.00
2023-02-17T01:55:15.887Z,100.00
2023-02-17T02:00:18.831Z,100.00
2023-02-17T02:05:20.792Z,100.00
2023-02-17T02:10:22.124Z,100.00
2023-02-17T02:15:25.473Z,100.00
2023-02-17T02:20:33.076Z,100.00
2023-02-17T02:25:40.442Z,100.00
2023-02-17T02:31:00.462Z,100.00
2023-02-17T02:36:19.725Z,100.00
2023-02-17T02:41:24.589Z,100.00
2023-02-17T02:46:25.928Z,100.00
2023-02-17T02:51:31.145Z,100.00
2023-02-17T02:56:41.524Z,100.00
2023-02-17T03:01:45.870Z,100.00
2023-02-17T03:06:49.780Z,100.00
2023-02-17T03:11:52.027Z,100.00
2023-02-17T03:16:54.227Z,100.00
2023-02-17T03:21:57.529Z,100.00
2023-02-17T03:26:58.834Z,100.00
2023-02-17T03:32:00.609Z,100.00
2023-02-17T03:37:01.980Z,100.00
2023-02-17T03:42:03.318Z,100.00
2023-02-17T03:47:04.690Z,100.00
2023-02-17T03:52:06.017Z,100.00
2023-02-17T03:57:07.356Z,100.00
2023-02-17T04:02:08.695Z,100.00
2023-02-17T04:07:10.008Z,99.76
2023-02-17T04:12:11.341Z,100.00
2023-02-17T04:17:12.702Z,100.00
2023-02-17T04:22:14.031Z,100.00
2023-02-17T04:27:15.408Z,100.00
2023-02-17T04:32:16.707Z,100.00
2023-02-17T04:37:18.003Z,100.00
2023-02-17T04:42:19.362Z,100.00
2023-02-17T04:47:20.679Z,100.00
2023-02-17T04:52:22.021Z,100.00
2023-02-17T04:57:23.358Z,100.00
2023-02-17T05:02:26.905Z,100.00
2023-02-17T05:07:28.276Z,100.00
2023-02-17T05:12:29.628Z,100.00
2023-02-17T05:17:30.943Z,100.00
2023-02-17T05:22:32.320Z,100.00
2023-02-17T05:27:33.675Z,99.21
2023-02-17T05:32:35.045Z,98.83
2023-02-17T05:37:36.741Z,99.88
2023-02-17T05:42:38.064Z,100.00
2023-02-17T05:47:39.384Z,100.00
2023-02-17T05:52:40.820Z,100.00
2023-02-17T05:57:42.189Z,100.00
2023-02-17T06:02:43.575Z,100.00
2023-02-17T06:07:45.054Z,100.00
2023-02-17T06:12:46.487Z,100.00
2023-02-17T06:17:47.843Z,100.00
2023-02-17T06:22:49.169Z,100.00
2023-02-17T06:27:50.653Z,100.00
2023-02-17T06:32:51.985Z,99.54
2023-02-17T06:37:53.461Z,98.51
2023-02-17T06:42:54.800Z,97.57
2023-02-17T06:47:56.112Z,97.39
2023-02-17T06:52:57.433Z,97.84
2023-02-17T06:57:58.755Z,98.05
2023-02-17T07:03:00.158Z,98.13
2023-02-17T07:08:01.676Z,99.11
2023-02-17T07:13:03.283Z,98.70
2023-02-17T07:18:04.809Z,98.12
2023-02-17T07:23:06.574Z,98.30
2023-02-17T07:28:08.113Z,99.08
2023-02-17T07:33:10.066Z,99.73
2023-02-17T07:38:11.972Z,98.94
2023-02-17T07:43:13.288Z,99.56
2023-02-17T07:48:14.615Z,98.91
2023-02-17T07:53:16.031Z,98.60
2023-02-17T07:58:17.408Z,98.03
2023-02-17T08:03:18.718Z,100.00
2023-02-17T08:08:38.849Z,100.00
2023-02-17T08:13:40.313Z,100.00
2023-02-17T08:18:41.638Z,100.00
2023-02-17T08:23:45.171Z,100.00
2023-02-17T08:28:46.939Z,100.00
2023-02-17T08:33:48.676Z,100.00
2023-02-17T08:38:51.259Z,100.00
2023-02-17T08:43:52.682Z,95.24
2023-02-17T08:48:54.022Z,90.10
2023-02-17T08:53:56.773Z,87.15
2023-02-17T08:58:58.352Z,88.23
2023-02-17T09:04:00.275Z,89.08
2023-02-17T09:09:01.728Z,91.47
2023-02-17T09:14:03.234Z,91.28
2023-02-17T09:19:04.641Z,90.65
2023-02-17T09:24:06.283Z,90.84
2023-02-17T09:29:07.788Z,90.96
2023-02-17T09:34:09.159Z,89.39
2023-02-17T09:39:13.418Z,89.75
2023-02-17T09:44:23.494Z,89.75
2023-02-17T09:49:26.603Z,88.31
2023-02-17T09:54:32.150Z,87.62
2023-02-17T09:59:39.581Z,87.73
2023-02-17T10:04:44.371Z,87.31
2023-02-17T10:09:49.324Z,85.00
2023-02-17T10:15:03.716Z,81.09
2023-02-17T10:20:08.157Z,80.04
2023-02-17T10:25:22.528Z,79.11
2023-02-17T10:30:32.932Z,80.19
2023-02-17T10:35:51.453Z,75.84
2023-02-17T10:40:54.174Z,76.43
2023-02-17T10:45:56.962Z,78.06
2023-02-17T10:51:00.140Z,72.75
2023-02-17T10:56:05.664Z,69.17
2023-02-17T11:01:08.569Z,69.37
2023-02-17T11:06:36.361Z,69.20
2023-02-17T11:11:37.688Z,71.90
2023-02-17T11:16:39.086Z,69.29
2023-02-17T11:21:43.237Z,67.62
2023-02-17T11:26:54.586Z,68.08
2023-02-17T11:32:00.666Z,67.90
2023-02-17T11:37:06.064Z,67.17
2023-02-17T11:42:23.732Z,69.41
2023-02-17T11:47:25.058Z,69.55
2023-02-17T11:52:40.754Z,70.35
2023-02-17T11:58:05.384Z,71.53
2023-02-17T12:03:20.761Z,72.98
2023-02-17T12:08:30.991Z,74.26
2023-02-17T12:13:55.533Z,74.32
2023-02-17T12:19:04.071Z,73.01
2023-02-17T12:24:05.394Z,71.77
2023-02-17T12:29:30.943Z,72.81
2023-02-17T12:34:40.996Z,73.35
2023-02-17T12:40:02.583Z,73.41
2023-02-17T12:45:05.785Z,73.47
2023-02-17T12:50:17.441Z,74.14
2023-02-17T12:55:24.676Z,75.00
2023-02-17T13:00:38.766Z,73.81
2023-02-17T13:05:58.665Z,73.80
2023-02-17T13:11:04.993Z,72.27
2023-02-17T13:16:08.237Z,67.20
2023-02-17T13:21:17.745Z,64.60
2023-02-17T13:26:21.216Z,61.76
2023-02-17T13:31:25.001Z,63.38
2023-02-17T13:36:32.757Z,60.26
2023-02-17T13:41:44.387Z,62.76
2023-02-17T13:46:46.973Z,63.21
2023-02-17T13:51:48.483Z,61.77
2023-02-17T13:56:50.921Z,62.40
2023-02-17T14:01:53.032Z,62.02
2023-02-17T14:06:56.950Z,61.22
2023-02-17T14:11:59.131Z,61.99
2023-02-17T14:17:09.090Z,64.37
2023-02-17T14:22:24.922Z,61.54
2023-02-17T14:27:26.322Z,64.11
2023-02-17T14:32:27.695Z,62.32
2023-02-17T14:37:31.002Z,64.48
2023-02-17T14:42:32.362Z,65.25
2023-02-17T14:47:33.733Z,65.33
2023-02-17T14:52:38.798Z,64.91
2023-02-17T14:57:40.173Z,66.38
2023-02-17T15:02:41.598Z,67.19
2023-02-17T15:07:42.998Z,68.10
2023-02-17T15:12:44.557Z,67.57
2023-02-17T15:17:46.153Z,67.67
2023-02-17T15:22:52.580Z,67.47
2023-02-17T15:27:53.923Z,67.70
2023-02-17T15:32:55.271Z,67.84
2023-02-17T15:37:57.065Z,67.26
2023-02-17T15:43:03.502Z,69.02
2023-02-17T15:48:07.517Z,68.81
2023-02-17T15:53:08.841Z,68.69
2023-02-17T15:58:13.790Z,68.71
2023-02-17T16:03:15.265Z,69.17
2023-02-17T16:08:18.452Z,69.46
2023-02-17T16:13:20.154Z,69.44
2023-02-17T16:18:22.378Z,69.20
2023-02-17T16:23:23.756Z,69.57
2023-02-17T16:28:25.061Z,69.83
2023-02-17T16:33:26.448Z,70.25
2023-02-17T16:38:27.846Z,70.75
2023-02-17T16:43:30.847Z,71.74
2023-02-17T16:48:34.876Z,72.77
2023-02-17T16:53:36.203Z,73.10
2023-02-17T16:58:37.763Z,73.74
2023-02-17T17:03:42.533Z,74.97
2023-02-17T17:08:43.866Z,75.69
2023-02-17T17:13:45.880Z,76.14
2023-02-17T17:18:47.507Z,77.17
2023-02-17T17:23:50.762Z,78.53
2023-02-17T17:28:52.489Z,80.63
2023-02-17T17:33:54.834Z,83.68
2023-02-17T17:38:57.455Z,88.66
2023-02-17T17:43:58.842Z,93.12
2023-02-17T17:49:00.380Z,98.97
2023-02-17T17:54:01.738Z,100.00
2023-02-17T17:59:04.136Z,100.00
2023-02-17T18:04:07.912Z,100.00
2023-02-17T18:09:12.003Z,100.00
2023-02-17T18:14:18.743Z,100.00
2023-02-17T18:19:20.225Z,100.00
2023-02-17T18:24:21.594Z,100.00
2023-02-17T18:29:22.910Z,100.00
2023-02-17T18:34:24.583Z,100.00
2023-02-17T18:39:26.015Z,100.00
2023-02-17T18:44:27.334Z,100.00
2023-02-17T18:49:29.194Z,100.00
2023-02-17T18:54:30.660Z,100.00
2023-02-17T18:59:32.231Z,100.00
2023-02-17T19:04:33.718Z,100.00
2023-02-17T19:09:37.063Z,99.40
2023-02-17T19:14:39.016Z,98.83
2023-02-17T19:19:40.949Z,98.26
2023-02-17T19:24:42.637Z,98.39
2023-02-17T19:29:44.001Z,98.48
2023-02-17T19:34:45.328Z,98.33
2023-02-17T19:39:46.656Z,97.80
2023-02-17T19:44:48.050Z,97.51
2023-02-17T19:49:49.397Z,97.34
2023-02-17T19:54:50.831Z,96.78
2023-02-17T19:59:52.713Z,96.34
2023-02-17T20:04:54.071Z,95.71
2023-02-17T20:09:55.399Z,96.04
2023-02-17T20:14:57.254Z,95.15
2023-02-17T20:19:59.569Z,93.79
2023-02-17T20:25:00.997Z,93.70
2023-02-17T20:30:02.602Z,93.28
2023-02-17T20:35:04.226Z,93.18
2023-02-17T20:40:06.836Z,93.48
2023-02-17T20:45:08.341Z,93.82
2023-02-17T20:50:12.739Z,93.79
2023-02-17T20:55:15.313Z,93.99
2023-02-17T21:00:18.191Z,94.30
2023-02-17T21:05:20.589Z,93.93
2023-02-17T21:10:23.460Z,92.56
2023-02-17T21:15:24.887Z,92.81
2023-02-17T21:20:26.211Z,93.02
2023-02-17T21:25:28.118Z,93.33
2023-02-17T21:30:29.515Z,93.95
2023-02-17T21:35:30.916Z,94.43
2023-02-17T21:40:32.280Z,94.90
2023-02-17T21:45:37.302Z,95.83
2023-02-17T21:50:38.682Z,96.41
2023-02-17T21:55:40.545Z,96.88
2023-02-17T22:00:42.141Z,97.23
2023-02-17T22:05:43.483Z,97.38
2023-02-17T22:10:44.853Z,97.41
2023-02-17T22:15:46.174Z,97.23
2023-02-17T22:20:47.545Z,97.46
2023-02-17T22:25:48.913Z,97.83
2023-02-17T22:30:51.740Z,97.94
2023-02-17T22:35:59.665Z,98.56
2023-02-17T22:41:04.355Z,98.62
2023-02-17T22:46:06.419Z,98.91
2023-02-17T22:51:09.316Z,99.78
2023-02-17T22:56:10.711Z,99.93
2023-02-17T23:01:16.101Z,99.69
2023-02-17T23:06:18.340Z,99.91
2023-02-17T23:11:41.460Z,100.00
2023-02-17T23:16:42.880Z,100.00
2023-02-17T23:21:45.544Z,100.00
2023-02-17T23:26:47.537Z,100.00
2023-02-17T23:31:48.976Z,100.00
2023-02-17T23:36:50.481Z,100.00
2023-02-17T23:41:51.797Z,100.00
2023-02-17T23:46:53.125Z,100.00
2023-02-17T23:51:54.542Z,100.00
2023-02-17T23:56:55.892Z,100.00
